Terminal Aerodrome Forecast
Issued by NWS Jackson, MS

Home | Current Version | Previous Version | Text Only | Print | Product List | Glossary On
Versions: 1 2 3 4 5 6 7 8 9 10 11 12 13 14
000
FTUS44 KMEG 290251 AAB
TAFTUP
TAF AMD
KTUP 290251Z 2903/2924 00000KT P6SM SKC
      TEMPO 2910/2912 5SM HZ
     FM291500 30005KT P6SM SCT045
     FM291800 35006KT P6SM VCTS BKN045CB=

USA.gov is the U.S. government's official web portal to all federal, state and local government web resources and services.